sensor_id;sensor_type;location;lat;lon;timestamp;temperature;humidity
72712;SHT30;60828;40.292;17.998;2023-01-16T00:00:21;8.54;88.35
72712;SHT30;60828;40.292;17.998;2023-01-16T00:02:46;8.61;88.18
72712;SHT30;60828;40.292;17.998;2023-01-16T00:05:11;8.61;88.09
72712;SHT30;60828;40.292;17.998;2023-01-16T00:07:37;8.61;88.07
72712;SHT30;60828;40.292;17.998;2023-01-16T00:10:03;8.48;88.05
72712;SHT30;60828;40.292;17.998;2023-01-16T00:12:32;8.46;88.20
72712;SHT30;60828;40.292;17.998;2023-01-16T00:14:57;8.46;88.33
72712;SHT30;60828;40.292;17.998;2023-01-16T00:17:23;8.33;88.39
72712;SHT30;60828;40.292;17.998;2023-01-16T00:19:48;8.39;88.38
72712;SHT30;60828;40.292;17.998;2023-01-16T00:22:13;8.43;88.51
72712;SHT30;60828;40.292;17.998;2023-01-16T00:24:39;8.53;88.32
72712;SHT30;60828;40.292;17.998;2023-01-16T00:27:04;8.47;88.34
72712;SHT30;60828;40.292;17.998;2023-01-16T00:29:29;8.48;88.42
72712;SHT30;60828;40.292;17.998;2023-01-16T00:31:54;8.43;88.49
72712;SHT30;60828;40.292;17.998;2023-01-16T00:34:20;8.47;88.56
72712;SHT30;60828;40.292;17.998;2023-01-16T00:36:45;8.48;88.49
72712;SHT30;60828;40.292;17.998;2023-01-16T00:39:10;8.44;88.54
72712;SHT30;60828;40.292;17.998;2023-01-16T00:41:36;8.47;88.57
72712;SHT30;60828;40.292;17.998;2023-01-16T00:44:01;8.44;88.62
72712;SHT30;60828;40.292;17.998;2023-01-16T00:46:27;8.34;88.79
72712;SHT30;60828;40.292;17.998;2023-01-16T00:48:54;8.39;88.92
72712;SHT30;60828;40.292;17.998;2023-01-16T00:51:19;8.37;88.83
72712;SHT30;60828;40.292;17.998;2023-01-16T00:53:45;8.40;88.90
72712;SHT30;60828;40.292;17.998;2023-01-16T00:56:10;8.44;88.69
72712;SHT30;60828;40.292;17.998;2023-01-16T00:58:35;8.34;88.77
72712;SHT30;60828;40.292;17.998;2023-01-16T01:01:01;8.33;88.79
72712;SHT30;60828;40.292;17.998;2023-01-16T01:03:27;8.34;88.89
72712;SHT30;60828;40.292;17.998;2023-01-16T01:05:52;8.36;88.90
72712;SHT30;60828;40.292;17.998;2023-01-16T01:08:18;8.37;88.96
72712;SHT30;60828;40.292;17.998;2023-01-16T01:10:43;8.34;89.01
72712;SHT30;60828;40.292;17.998;2023-01-16T01:13:08;8.32;89.03
72712;SHT30;60828;40.292;17.998;2023-01-16T01:15:34;8.34;89.05
72712;SHT30;60828;40.292;17.998;2023-01-16T01:17:59;8.30;89.06
72712;SHT30;60828;40.292;17.998;2023-01-16T01:20:25;8.30;89.05
72712;SHT30;60828;40.292;17.998;2023-01-16T01:22:50;8.26;89.14
72712;SHT30;60828;40.292;17.998;2023-01-16T01:25:15;8.26;89.22
72712;SHT30;60828;40.292;17.998;2023-01-16T01:27:41;8.22;89.28
72712;SHT30;60828;40.292;17.998;2023-01-16T01:30:06;8.22;89.27
72712;SHT30;60828;40.292;17.998;2023-01-16T01:32:32;8.25;89.30
72712;SHT30;60828;40.292;17.998;2023-01-16T01:34:57;8.22;89.37
72712;SHT30;60828;40.292;17.998;2023-01-16T01:37:23;8.16;89.36
72712;SHT30;60828;40.292;17.998;2023-01-16T01:39:49;8.22;89.48
72712;SHT30;60828;40.292;17.998;2023-01-16T01:42:15;8.20;89.50
72712;SHT30;60828;40.292;17.998;2023-01-16T01:45:06;8.22;89.53
72712;SHT30;60828;40.292;17.998;2023-01-16T01:47:36;8.16;89.58
72712;SHT30;60828;40.292;17.998;2023-01-16T01:50:04;8.23;89.51
72712;SHT30;60828;40.292;17.998;2023-01-16T01:52:34;8.23;89.49
72712;SHT30;60828;40.292;17.998;2023-01-16T01:55:02;8.26;89.64
72712;SHT30;60828;40.292;17.998;2023-01-16T01:57:32;8.20;89.64
72712;SHT30;60828;40.292;17.998;2023-01-16T02:00:14;8.22;89.65
72712;SHT30;60828;40.292;17.998;2023-01-16T02:03:14;8.19;89.56
72712;SHT30;60828;40.292;17.998;2023-01-16T02:05:34;8.16;89.71
72712;SHT30;60828;40.292;17.998;2023-01-16T02:08:01;8.10;89.81
72712;SHT30;60828;40.292;17.998;2023-01-16T02:10:33;8.10;89.99
72712;SHT30;60828;40.292;17.998;2023-01-16T02:13:00;8.20;89.90
72712;SHT30;60828;40.292;17.998;2023-01-16T02:15:25;8.19;89.91
72712;SHT30;60828;40.292;17.998;2023-01-16T02:17:51;8.28;89.83
72712;SHT30;60828;40.292;17.998;2023-01-16T02:31:40;8.23;89.71
72712;SHT30;60828;40.292;17.998;2023-01-16T02:51:37;8.19;90.82
72712;SHT30;60828;40.292;17.998;2023-01-16T02:54:08;8.23;90.94
72712;SHT30;60828;40.292;17.998;2023-01-16T02:56:58;8.41;90.96
72712;SHT30;60828;40.292;17.998;2023-01-16T02:59:22;8.29;90.75
72712;SHT30;60828;40.292;17.998;2023-01-16T03:01:48;8.32;90.77
72712;SHT30;60828;40.292;17.998;2023-01-16T03:09:44;8.23;91.00
72712;SHT30;60828;40.292;17.998;2023-01-16T03:17:38;8.22;91.25
72712;SHT30;60828;40.292;17.998;2023-01-16T03:20:13;8.25;91.21
72712;SHT30;60828;40.292;17.998;2023-01-16T03:22:52;8.32;91.25
72712;SHT30;60828;40.292;17.998;2023-01-16T03:30:26;8.34;90.78
72712;SHT30;60828;40.292;17.998;2023-01-16T03:33:02;8.25;90.85
72712;SHT30;60828;40.292;17.998;2023-01-16T03:36:15;8.30;90.94
72712;SHT30;60828;40.292;17.998;2023-01-16T03:38:18;8.20;91.01
72712;SHT30;60828;40.292;17.998;2023-01-16T03:40:46;8.22;90.99
72712;SHT30;60828;40.292;17.998;2023-01-16T03:43:32;8.29;91.05
72712;SHT30;60828;40.292;17.998;2023-01-16T03:46:00;8.37;90.94
72712;SHT30;60828;40.292;17.998;2023-01-16T03:51:26;8.63;90.31
72712;SHT30;60828;40.292;17.998;2023-01-16T03:58:53;8.78;90.22
72712;SHT30;60828;40.292;17.998;2023-01-16T04:03:55;9.01;90.21
72712;SHT30;60828;40.292;17.998;2023-01-16T04:06:28;9.02;90.05
72712;SHT30;60828;40.292;17.998;2023-01-16T04:08:56;9.13;90.06
72712;SHT30;60828;40.292;17.998;2023-01-16T04:11:22;9.12;89.91
72712;SHT30;60828;40.292;17.998;2023-01-16T04:13:49;9.12;89.74
72712;SHT30;60828;40.292;17.998;2023-01-16T04:16:16;9.18;89.67
72712;SHT30;60828;40.292;17.998;2023-01-16T04:18:43;9.22;89.90
72712;SHT30;60828;40.292;17.998;2023-01-16T04:21:09;9.11;89.92
72712;SHT30;60828;40.292;17.998;2023-01-16T04:23:34;9.13;90.13
72712;SHT30;60828;40.292;17.998;2023-01-16T04:26:00;9.18;90.23
72712;SHT30;60828;40.292;17.998;2023-01-16T04:28:25;9.13;90.24
72712;SHT30;60828;40.292;17.998;2023-01-16T04:30:51;9.16;90.20
72712;SHT30;60828;40.292;17.998;2023-01-16T04:33:16;9.23;90.26
72712;SHT30;60828;40.292;17.998;2023-01-16T04:35:41;9.13;90.24
72712;SHT30;60828;40.292;17.998;2023-01-16T04:38:07;9.16;90.33
72712;SHT30;60828;40.292;17.998;2023-01-16T04:40:32;9.11;90.25
72712;SHT30;60828;40.292;17.998;2023-01-16T04:42:57;9.12;90.25
72712;SHT30;60828;40.292;17.998;2023-01-16T04:45:23;9.09;90.25
72712;SHT30;60828;40.292;17.998;2023-01-16T04:47:49;9.04;90.23
72712;SHT30;60828;40.292;17.998;2023-01-16T04:50:15;8.96;90.20
72712;SHT30;60828;40.292;17.998;2023-01-16T04:52:41;8.88;90.25
72712;SHT30;60828;40.292;17.998;2023-01-16T04:55:07;8.82;90.32
72712;SHT30;60828;40.292;17.998;2023-01-16T04:57:33;8.78;90.34
72712;SHT30;60828;40.292;17.998;2023-01-16T04:59:58;8.79;90.47
72712;SHT30;60828;40.292;17.998;2023-01-16T05:02:23;8.75;90.46
72712;SHT30;60828;40.292;17.998;2023-01-16T05:04:49;8.75;90.56
72712;SHT30;60828;40.292;17.998;2023-01-16T05:07:14;8.69;90.59
72712;SHT30;60828;40.292;17.998;2023-01-16T05:09:39;8.71;90.58
72712;SHT30;60828;40.292;17.998;2023-01-16T05:12:05;8.67;90.61
72712;SHT30;60828;40.292;17.998;2023-01-16T05:14:30;8.63;90.61
72712;SHT30;60828;40.292;17.998;2023-01-16T05:16:56;8.67;90.69
72712;SHT30;60828;40.292;17.998;2023-01-16T05:19:21;8.63;90.71
72712;SHT30;60828;40.292;17.998;2023-01-16T05:21:46;8.67;90.72
72712;SHT30;60828;40.292;17.998;2023-01-16T05:24:12;8.63;90.75
72712;SHT30;60828;40.292;17.998;2023-01-16T05:26:37;8.57;90.77
72712;SHT30;60828;40.292;17.998;2023-01-16T05:29:02;8.69;90.81
72712;SHT30;60828;40.292;17.998;2023-01-16T05:31:28;8.67;90.82
72712;SHT30;60828;40.292;17.998;2023-01-16T05:33:53;8.69;90.87
72712;SHT30;60828;40.292;17.998;2023-01-16T05:36:18;8.67;90.89
72712;SHT30;60828;40.292;17.998;2023-01-16T05:38:44;8.68;90.91
72712;SHT30;60828;40.292;17.998;2023-01-16T05:41:09;8.74;91.00
72712;SHT30;60828;40.292;17.998;2023-01-16T05:43:35;8.68;91.00
72712;SHT30;60828;40.292;17.998;2023-01-16T05:46:00;8.85;91.00
72712;SHT30;60828;40.292;17.998;2023-01-16T05:48:25;8.87;90.89
72712;SHT30;60828;40.292;17.998;2023-01-16T05:50:51;8.78;90.90
72712;SHT30;60828;40.292;17.998;2023-01-16T05:53:16;8.75;90.97
72712;SHT30;60828;40.292;17.998;2023-01-16T05:55:43;8.72;90.93
72712;SHT30;60828;40.292;17.998;2023-01-16T05:58:09;8.74;90.85
72712;SHT30;60828;40.292;17.998;2023-01-16T06:00:35;8.64;90.89
72712;SHT30;60828;40.292;17.998;2023-01-16T06:03:00;8.67;90.96
72712;SHT30;60828;40.292;17.998;2023-01-16T06:05:25;8.64;91.00
72712;SHT30;60828;40.292;17.998;2023-01-16T06:07:54;8.64;91.05
72712;SHT30;60828;40.292;17.998;2023-01-16T06:10:20;8.69;91.15
72712;SHT30;60828;40.292;17.998;2023-01-16T06:12:45;8.67;91.14
72712;SHT30;60828;40.292;17.998;2023-01-16T06:15:11;8.77;91.08
72712;SHT30;60828;40.292;17.998;2023-01-16T06:17:36;8.77;91.12
72712;SHT30;60828;40.292;17.998;2023-01-16T06:20:02;8.85;91.06
72712;SHT30;60828;40.292;17.998;2023-01-16T06:22:27;8.82;91.07
72712;SHT30;60828;40.292;17.998;2023-01-16T06:24:52;8.91;90.95
72712;SHT30;60828;40.292;17.998;2023-01-16T06:27:18;8.96;91.16
72712;SHT30;60828;40.292;17.998;2023-01-16T06:29:43;9.02;91.19
72712;SHT30;60828;40.292;17.998;2023-01-16T06:32:08;9.15;91.32
72712;SHT30;60828;40.292;17.998;2023-01-16T06:34:34;9.27;91.16
72712;SHT30;60828;40.292;17.998;2023-01-16T06:36:59;9.30;91.01
72712;SHT30;60828;40.292;17.998;2023-01-16T06:39:24;9.36;90.91
72712;SHT30;60828;40.292;17.998;2023-01-16T06:41:50;9.43;90.86
72712;SHT30;60828;40.292;17.998;2023-01-16T06:44:15;9.47;90.63
72712;SHT30;60828;40.292;17.998;2023-01-16T06:46:40;9.60;90.52
72712;SHT30;60828;40.292;17.998;2023-01-16T06:49:06;9.73;90.25
72712;SHT30;60828;40.292;17.998;2023-01-16T06:51:31;10.45;89.79
72712;SHT30;60828;40.292;17.998;2023-01-16T06:53:56;10.91;88.02
72712;SHT30;60828;40.292;17.998;2023-01-16T06:56:22;10.87;87.33
72712;SHT30;60828;40.292;17.998;2023-01-16T06:58:47;10.91;87.45
72712;SHT30;60828;40.292;17.998;2023-01-16T07:01:12;11.01;87.11
72712;SHT30;60828;40.292;17.998;2023-01-16T07:03:38;11.18;86.63
72712;SHT30;60828;40.292;17.998;2023-01-16T07:06:03;11.23;86.38
72712;SHT30;60828;40.292;17.998;2023-01-16T07:08:28;11.39;85.90
72712;SHT30;60828;40.292;17.998;2023-01-16T07:10:57;11.93;85.74
72712;SHT30;60828;40.292;17.998;2023-01-16T07:13:23;12.83;83.69
72712;SHT30;60828;40.292;17.998;2023-01-16T07:15:52;12.86;82.65
72712;SHT30;60828;40.292;17.998;2023-01-16T07:18:36;13.01;82.62
72712;SHT30;60828;40.292;17.998;2023-01-16T07:21:37;14.71;80.23
72712;SHT30;60828;40.292;17.998;2023-01-16T07:24:23;17.59;70.48
72712;SHT30;60828;40.292;17.998;2023-01-16T07:26:51;19.28;64.39
72712;SHT30;60828;40.292;17.998;2023-01-16T07:29:17;21.06;60.49
72712;SHT30;60828;40.292;17.998;2023-01-16T07:31:42;22.34;57.09
72712;SHT30;60828;40.292;17.998;2023-01-16T07:34:08;22.94;54.25
72712;SHT30;60828;40.292;17.998;2023-01-16T07:36:33;22.69;53.56
72712;SHT30;60828;40.292;17.998;2023-01-16T07:38:58;19.91;60.87
72712;SHT30;60828;40.292;17.998;2023-01-16T07:41:24;17.49;68.38
72712;SHT30;60828;40.292;17.998;2023-01-16T07:43:49;15.74;74.85
72712;SHT30;60828;40.292;17.998;2023-01-16T07:46:15;14.71;78.75
72712;SHT30;60828;40.292;17.998;2023-01-16T07:48:40;14.20;80.60
72712;SHT30;60828;40.292;17.998;2023-01-16T07:51:06;13.80;81.77
72712;SHT30;60828;40.292;17.998;2023-01-16T07:53:34;13.59;82.32
72712;SHT30;60828;40.292;17.998;2023-01-16T07:56:00;13.39;82.74
72712;SHT30;60828;40.292;17.998;2023-01-16T07:58:27;13.35;83.03
72712;SHT30;60828;40.292;17.998;2023-01-16T08:22:31;16.65;71.62
72712;SHT30;60828;40.292;17.998;2023-01-16T08:31:54;21.23;59.33
72712;SHT30;60828;40.292;17.998;2023-01-16T08:37:28;21.65;57.86
72712;SHT30;60828;40.292;17.998;2023-01-16T08:39:53;20.27;62.16
72712;SHT30;60828;40.292;17.998;2023-01-16T08:52:11;15.84;77.44
72712;SHT30;60828;40.292;17.998;2023-01-16T08:54:47;15.58;77.96
72712;SHT30;60828;40.292;17.998;2023-01-16T08:57:12;15.54;77.20
72712;SHT30;60828;40.292;17.998;2023-01-16T08:59:38;15.59;76.87
72712;SHT30;60828;40.292;17.998;2023-01-16T09:02:04;16.13;75.64
72712;SHT30;60828;40.292;17.998;2023-01-16T09:04:42;16.17;75.35
72712;SHT30;60828;40.292;17.998;2023-01-16T09:07:11;16.09;76.20
72712;SHT30;60828;40.292;17.998;2023-01-16T09:12:51;16.49;74.90
72712;SHT30;60828;40.292;17.998;2023-01-16T09:15:35;16.20;75.79
72712;SHT30;60828;40.292;17.998;2023-01-16T09:18:01;15.66;76.67
72712;SHT30;60828;40.292;17.998;2023-01-16T09:20:26;15.64;76.67
72712;SHT30;60828;40.292;17.998;2023-01-16T09:26:12;15.65;75.01
72712;SHT30;60828;40.292;17.998;2023-01-16T09:28:44;15.77;75.29
72712;SHT30;60828;40.292;17.998;2023-01-16T09:31:13;15.82;75.26
72712;SHT30;60828;40.292;17.998;2023-01-16T09:33:42;16.06;74.46
72712;SHT30;60828;40.292;17.998;2023-01-16T09:39:10;15.64;74.97
72712;SHT30;60828;40.292;17.998;2023-01-16T09:41:49;15.59;75.17
72712;SHT30;60828;40.292;17.998;2023-01-16T09:44:35;15.68;74.98
72712;SHT30;60828;40.292;17.998;2023-01-16T09:47:01;15.59;75.57
72712;SHT30;60828;40.292;17.998;2023-01-16T09:49:37;15.55;75.72
72712;SHT30;60828;40.292;17.998;2023-01-16T09:55:10;15.55;75.41
72712;SHT30;60828;40.292;17.998;2023-01-16T09:57:54;15.61;75.85
72712;SHT30;60828;40.292;17.998;2023-01-16T10:00:39;15.53;76.44
72712;SHT30;60828;40.292;17.998;2023-01-16T10:05:57;15.62;76.57
72712;SHT30;60828;40.292;17.998;2023-01-16T10:08:31;15.74;76.22
72712;SHT30;60828;40.292;17.998;2023-01-16T10:16:36;15.81;75.12
72712;SHT30;60828;40.292;17.998;2023-01-16T10:27:09;15.64;76.02
72712;SHT30;60828;40.292;17.998;2023-01-16T10:34:59;15.36;75.46
72712;SHT30;60828;40.292;17.998;2023-01-16T10:37:29;15.31;75.32
72712;SHT30;60828;40.292;17.998;2023-01-16T10:39:54;15.27;75.37
72712;SHT30;60828;40.292;17.998;2023-01-16T10:42:24;15.24;75.34
72712;SHT30;60828;40.292;17.998;2023-01-16T10:45:20;15.20;75.85
72712;SHT30;60828;40.292;17.998;2023-01-16T10:48:10;15.27;76.06
72712;SHT30;60828;40.292;17.998;2023-01-16T10:50:55;15.36;76.15
72712;SHT30;60828;40.292;17.998;2023-01-16T10:53:26;15.34;76.53
72712;SHT30;60828;40.292;17.998;2023-01-16T10:55:51;15.33;76.45
72712;SHT30;60828;40.292;17.998;2023-01-16T10:58:22;15.26;76.92
72712;SHT30;60828;40.292;17.998;2023-01-16T11:00:49;15.24;76.98
72712;SHT30;60828;40.292;17.998;2023-01-16T11:03:17;15.26;77.04
72712;SHT30;60828;40.292;17.998;2023-01-16T11:05:43;15.28;76.67
72712;SHT30;60828;40.292;17.998;2023-01-16T11:08:13;15.23;77.12
72712;SHT30;60828;40.292;17.998;2023-01-16T11:10:43;15.20;77.39
72712;SHT30;60828;40.292;17.998;2023-01-16T11:13:25;15.13;77.25
72712;SHT30;60828;40.292;17.998;2023-01-16T11:22:40;15.11;77.59
72712;SHT30;60828;40.292;17.998;2023-01-16T11:25:06;15.17;75.71
72712;SHT30;60828;40.292;17.998;2023-01-16T11:27:42;15.30;75.61
72712;SHT30;60828;40.292;17.998;2023-01-16T11:30:14;15.38;76.34
72712;SHT30;60828;40.292;17.998;2023-01-16T11:32:40;15.24;77.25
72712;SHT30;60828;40.292;17.998;2023-01-16T11:35:13;15.04;77.82
72712;SHT30;60828;40.292;17.998;2023-01-16T11:41:35;15.04;78.34
72712;SHT30;60828;40.292;17.998;2023-01-16T11:49:52;15.27;77.47
72712;SHT30;60828;40.292;17.998;2023-01-16T11:56:01;15.57;74.70
72712;SHT30;60828;40.292;17.998;2023-01-16T12:11:01;15.31;73.60
72712;SHT30;60828;40.292;17.998;2023-01-16T12:16:49;15.64;72.75
72712;SHT30;60828;40.292;17.998;2023-01-16T12:25:00;16.10;70.45
72712;SHT30;60828;40.292;17.998;2023-01-16T12:50:30;14.98;77.70
72712;SHT30;60828;40.292;17.998;2023-01-16T12:53:07;15.00;77.85
72712;SHT30;60828;40.292;17.998;2023-01-16T12:55:42;15.00;78.30
72712;SHT30;60828;40.292;17.998;2023-01-16T12:58:14;15.06;78.36
72712;SHT30;60828;40.292;17.998;2023-01-16T13:00:42;15.00;78.48
72712;SHT30;60828;40.292;17.998;2023-01-16T13:03:13;14.98;78.43
72712;SHT30;60828;40.292;17.998;2023-01-16T13:05:40;14.95;78.57
72712;SHT30;60828;40.292;17.998;2023-01-16T13:14:15;15.06;78.60
72712;SHT30;60828;40.292;17.998;2023-01-16T13:16:45;15.09;77.88
72712;SHT30;60828;40.292;17.998;2023-01-16T13:19:18;15.09;77.98
72712;SHT30;60828;40.292;17.998;2023-01-16T13:24:46;15.06;78.07
72712;SHT30;60828;40.292;17.998;2023-01-16T13:27:13;15.00;78.14
72712;SHT30;60828;40.292;17.998;2023-01-16T13:29:47;14.99;78.00
72712;SHT30;60828;40.292;17.998;2023-01-16T13:34:45;15.04;78.59
72712;SHT30;60828;40.292;17.998;2023-01-16T13:42:28;14.86;78.58
72712;SHT30;60828;40.292;17.998;2023-01-16T13:44:57;14.78;79.20
72712;SHT30;60828;40.292;17.998;2023-01-16T13:47:41;14.75;79.21
72712;SHT30;60828;40.292;17.998;2023-01-16T13:50:27;14.71;79.34
72712;SHT30;60828;40.292;17.998;2023-01-16T13:52:54;14.71;79.66
72712;SHT30;60828;40.292;17.998;2023-01-16T13:55:33;14.62;80.07
72712;SHT30;60828;40.292;17.998;2023-01-16T14:03:44;14.51;80.45
72712;SHT30;60828;40.292;17.998;2023-01-16T14:06:29;14.48;80.62
72712;SHT30;60828;40.292;17.998;2023-01-16T14:09:19;14.45;80.33
72712;SHT30;60828;40.292;17.998;2023-01-16T14:14:30;14.40;80.47
72712;SHT30;60828;40.292;17.998;2023-01-16T14:20:02;14.38;80.59
72712;SHT30;60828;40.292;17.998;2023-01-16T14:23:03;14.35;80.43
72712;SHT30;60828;40.292;17.998;2023-01-16T14:25:53;14.33;81.07
72712;SHT30;60828;40.292;17.998;2023-01-16T14:28:20;14.34;81.43
72712;SHT30;60828;40.292;17.998;2023-01-16T14:30:45;14.35;82.08
72712;SHT30;60828;40.292;17.998;2023-01-16T14:33:12;14.41;81.77
72712;SHT30;60828;40.292;17.998;2023-01-16T14:41:56;14.34;81.47
72712;SHT30;60828;40.292;17.998;2023-01-16T14:54:01;14.23;81.77
72712;SHT30;60828;40.292;17.998;2023-01-16T15:09:33;14.17;83.03
72712;SHT30;60828;40.292;17.998;2023-01-16T15:12:08;14.18;83.57
72712;SHT30;60828;40.292;17.998;2023-01-16T15:17:18;14.13;84.16
72712;SHT30;60828;40.292;17.998;2023-01-16T15:35:14;14.04;84.44
72712;SHT30;60828;40.292;17.998;2023-01-16T15:37:50;14.07;84.51
72712;SHT30;60828;40.292;17.998;2023-01-16T15:40:21;14.04;84.67
72712;SHT30;60828;40.292;17.998;2023-01-16T15:45:58;13.96;85.49
72712;SHT30;60828;40.292;17.998;2023-01-16T15:52:25;13.80;86.22
72712;SHT30;60828;40.292;17.998;2023-01-16T16:01:37;13.66;86.99
72712;SHT30;60828;40.292;17.998;2023-01-16T16:04:13;13.61;86.86
72712;SHT30;60828;40.292;17.998;2023-01-16T16:06:38;13.51;87.12
72712;SHT30;60828;40.292;17.998;2023-01-16T16:09:13;13.57;87.13
72712;SHT30;60828;40.292;17.998;2023-01-16T16:11:41;13.57;87.10
72712;SHT30;60828;40.292;17.998;2023-01-16T16:14:36;13.55;87.37
72712;SHT30;60828;40.292;17.998;2023-01-16T16:17:21;13.62;87.33
72712;SHT30;60828;40.292;17.998;2023-01-16T16:22:50;13.63;87.10
72712;SHT30;60828;40.292;17.998;2023-01-16T16:25:22;13.68;86.84
72712;SHT30;60828;40.292;17.998;2023-01-16T16:27:47;13.66;86.77
72712;SHT30;60828;40.292;17.998;2023-01-16T16:30:15;13.69;86.74
72712;SHT30;60828;40.292;17.998;2023-01-16T16:33:03;13.66;86.80
72712;SHT30;60828;40.292;17.998;2023-01-16T16:35:49;13.66;86.70
72712;SHT30;60828;40.292;17.998;2023-01-16T16:38:21;13.70;86.75
72712;SHT30;60828;40.292;17.998;2023-01-16T16:53:26;13.57;87.27
72712;SHT30;60828;40.292;17.998;2023-01-16T16:59:27;13.44;87.59
72712;SHT30;60828;40.292;17.998;2023-01-16T17:02:22;13.44;87.77
72712;SHT30;60828;40.292;17.998;2023-01-16T17:04:59;13.48;87.62
72712;SHT30;60828;40.292;17.998;2023-01-16T17:10:40;13.52;87.45
72712;SHT30;60828;40.292;17.998;2023-01-16T17:13:26;13.51;87.39
72712;SHT30;60828;40.292;17.998;2023-01-16T17:15:53;13.49;87.20
72712;SHT30;60828;40.292;17.998;2023-01-16T17:18:29;13.48;86.96
72712;SHT30;60828;40.292;17.998;2023-01-16T17:21:15;13.44;87.00
72712;SHT30;60828;40.292;17.998;2023-01-16T17:23:42;13.42;87.02
72712;SHT30;60828;40.292;17.998;2023-01-16T17:42:14;13.44;87.01
72712;SHT30;60828;40.292;17.998;2023-01-16T17:53:18;13.27;87.25
72712;SHT30;60828;40.292;17.998;2023-01-16T17:55:45;13.31;87.39
72712;SHT30;60828;40.292;17.998;2023-01-16T17:58:40;13.25;87.37
72712;SHT30;60828;40.292;17.998;2023-01-16T18:01:35;13.15;87.58
72712;SHT30;60828;40.292;17.998;2023-01-16T18:04:18;13.17;87.68
72712;SHT30;60828;40.292;17.998;2023-01-16T18:06:44;13.11;87.84
72712;SHT30;60828;40.292;17.998;2023-01-16T18:09:10;13.08;87.96
72712;SHT30;60828;40.292;17.998;2023-01-16T18:11:37;13.08;88.14
72712;SHT30;60828;40.292;17.998;2023-01-16T18:17:24;13.12;88.13
72712;SHT30;60828;40.292;17.998;2023-01-16T18:19:49;13.21;88.14
72712;SHT30;60828;40.292;17.998;2023-01-16T18:25:23;13.10;88.26
72712;SHT30;60828;40.292;17.998;2023-01-16T18:27:49;13.14;88.21
72712;SHT30;60828;40.292;17.998;2023-01-16T18:33:25;13.11;87.82
72712;SHT30;60828;40.292;17.998;2023-01-16T19:05:42;13.25;87.62
72712;SHT30;60828;40.292;17.998;2023-01-16T19:17:26;13.24;88.29
72712;SHT30;60828;40.292;17.998;2023-01-16T19:19:52;13.27;88.55
72712;SHT30;60828;40.292;17.998;2023-01-16T19:22:21;13.30;88.39
72712;SHT30;60828;40.292;17.998;2023-01-16T19:24:48;13.27;88.54
72712;SHT30;60828;40.292;17.998;2023-01-16T19:27:47;13.30;88.75
72712;SHT30;60828;40.292;17.998;2023-01-16T19:30:13;13.27;88.94
72712;SHT30;60828;40.292;17.998;2023-01-16T19:32:44;13.25;89.21
72712;SHT30;60828;40.292;17.998;2023-01-16T19:35:12;13.22;89.22
72712;SHT30;60828;40.292;17.998;2023-01-16T19:37:37;13.18;89.39
72712;SHT30;60828;40.292;17.998;2023-01-16T19:40:09;13.11;89.41
72712;SHT30;60828;40.292;17.998;2023-01-16T19:42:48;13.10;89.56
72712;SHT30;60828;40.292;17.998;2023-01-16T19:48:44;13.03;89.66
72712;SHT30;60828;40.292;17.998;2023-01-16T19:51:11;12.94;89.56
72712;SHT30;60828;40.292;17.998;2023-01-16T19:53:46;12.84;89.64
72712;SHT30;60828;40.292;17.998;2023-01-16T19:56:11;12.79;89.80
72712;SHT30;60828;40.292;17.998;2023-01-16T19:58:43;12.73;89.89
72712;SHT30;60828;40.292;17.998;2023-01-16T20:01:12;12.72;90.07
72712;SHT30;60828;40.292;17.998;2023-01-16T20:03:44;12.76;90.12
72712;SHT30;60828;40.292;17.998;2023-01-16T20:06:15;12.70;90.17
72712;SHT30;60828;40.292;17.998;2023-01-16T20:08:41;12.66;90.21
72712;SHT30;60828;40.292;17.998;2023-01-16T20:11:10;12.82;90.36
72712;SHT30;60828;40.292;17.998;2023-01-16T20:22:43;12.60;90.43
72712;SHT30;60828;40.292;17.998;2023-01-16T20:25:14;12.59;90.52
72712;SHT30;60828;40.292;17.998;2023-01-16T20:28:26;12.57;90.57
72712;SHT30;60828;40.292;17.998;2023-01-16T20:30:54;12.60;90.62
72712;SHT30;60828;40.292;17.998;2023-01-16T20:33:28;12.57;90.69
72712;SHT30;60828;40.292;17.998;2023-01-16T20:38:47;12.69;90.45
72712;SHT30;60828;40.292;17.998;2023-01-16T20:41:16;12.73;89.84
72712;SHT30;60828;40.292;17.998;2023-01-16T20:44:00;12.80;89.13
72712;SHT30;60828;40.292;17.998;2023-01-16T20:46:44;12.92;87.98
72712;SHT30;60828;40.292;17.998;2023-01-16T20:49:09;13.11;86.38
72712;SHT30;60828;40.292;17.998;2023-01-16T20:51:35;13.25;85.06
72712;SHT30;60828;40.292;17.998;2023-01-16T20:54:01;13.41;84.28
72712;SHT30;60828;40.292;17.998;2023-01-16T20:56:35;13.54;83.38
72712;SHT30;60828;40.292;17.998;2023-01-16T20:59:05;13.77;81.30
72712;SHT30;60828;40.292;17.998;2023-01-16T21:01:30;14.00;79.56
72712;SHT30;60828;40.292;17.998;2023-01-16T21:03:56;14.18;80.33
72712;SHT30;60828;40.292;17.998;2023-01-16T21:06:21;14.10;81.30
72712;SHT30;60828;40.292;17.998;2023-01-16T21:08:47;14.25;80.67
72712;SHT30;60828;40.292;17.998;2023-01-16T21:11:12;14.44;79.97
72712;SHT30;60828;40.292;17.998;2023-01-16T21:13:56;14.44;80.58
72712;SHT30;60828;40.292;17.998;2023-01-16T21:16:43;14.41;79.84
72712;SHT30;60828;40.292;17.998;2023-01-16T21:19:27;14.46;79.29
72712;SHT30;60828;40.292;17.998;2023-01-16T21:22:14;14.46;77.86
72712;SHT30;60828;40.292;17.998;2023-01-16T21:24:40;14.44;77.97
72712;SHT30;60828;40.292;17.998;2023-01-16T21:27:06;14.45;78.08
72712;SHT30;60828;40.292;17.998;2023-01-16T21:29:32;14.35;78.62
72712;SHT30;60828;40.292;17.998;2023-01-16T21:32:02;14.18;80.49
72712;SHT30;60828;40.292;17.998;2023-01-16T21:34:27;14.00;82.36
72712;SHT30;60828;40.292;17.998;2023-01-16T21:36:53;13.91;83.71
72712;SHT30;60828;40.292;17.998;2023-01-16T21:39:18;13.80;84.59
72712;SHT30;60828;40.292;17.998;2023-01-16T21:41:44;13.68;85.72
72712;SHT30;60828;40.292;17.998;2023-01-16T21:44:28;13.66;86.17
72712;SHT30;60828;40.292;17.998;2023-01-16T21:47:12;13.63;86.61
72712;SHT30;60828;40.292;17.998;2023-01-16T21:49:38;13.68;86.96
72712;SHT30;60828;40.292;17.998;2023-01-16T21:52:04;13.62;87.13
72712;SHT30;60828;40.292;17.998;2023-01-16T21:54:29;13.70;87.15
72712;SHT30;60828;40.292;17.998;2023-01-16T21:56:55;13.75;87.20
72712;SHT30;60828;40.292;17.998;2023-01-16T21:59:20;13.68;87.13
72712;SHT30;60828;40.292;17.998;2023-01-16T22:01:45;13.59;87.36
72712;SHT30;60828;40.292;17.998;2023-01-16T22:04:11;13.66;87.26
72712;SHT30;60828;40.292;17.998;2023-01-16T22:06:37;13.66;86.96
72712;SHT30;60828;40.292;17.998;2023-01-16T22:09:09;13.68;87.04
72712;SHT30;60828;40.292;17.998;2023-01-16T22:11:35;13.65;87.08
72712;SHT30;60828;40.292;17.998;2023-01-16T22:14:19;13.77;86.07